sensor_id;sensor_type;location;lat;lon;timestamp;noise_LAeq;noise_LA_min;noise_LA_max;noise_LA01;noise_LA95
46749;Laerm;33775;47.992;11.864;2024-02-21T00:00:16;37.32;30.89;39.92;;
46749;Laerm;33775;47.992;11.864;2024-02-21T00:02:42;37.30;32.35;40.53;;
46749;Laerm;33775;47.992;11.864;2024-02-21T00:05:08;37.26;33.44;39.81;;
46749;Laerm;33775;47.992;11.864;2024-02-21T00:07:34;37.28;33.44;40.03;;
46749;Laerm;33775;47.992;11.864;2024-02-21T00:09:59;37.27;32.93;39.81;;
46749;Laerm;33775;47.992;11.864;2024-02-21T00:12:24;37.27;32.93;40.03;;
46749;Laerm;33775;47.992;11.864;2024-02-21T00:14:49;37.21;32.93;39.92;;
46749;Laerm;33775;47.992;11.864;2024-02-21T00:17:14;37.20;32.93;40.33;;
46749;Laerm;33775;47.992;11.864;2024-02-21T00:19:40;37.18;33.44;40.03;;
46749;Laerm;33775;47.992;11.864;2024-02-21T00:22:05;37.17;32.93;39.81;;
46749;Laerm;33775;47.992;11.864;2024-02-21T00:24:30;37.27;32.35;40.23;;
46749;Laerm;33775;47.992;11.864;2024-02-21T00:26:55;37.24;32.35;40.43;;
46749;Laerm;33775;47.992;11.864;2024-02-21T00:29:20;37.17;32.93;40.33;;
46749;Laerm;33775;47.992;11.864;2024-02-21T00:31:45;37.11;32.35;39.81;;
46749;Laerm;33775;47.992;11.864;2024-02-21T00:34:11;37.06;31.68;40.13;;
46749;Laerm;33775;47.992;11.864;2024-02-21T00:36:37;36.99;31.68;39.92;;
46749;Laerm;33775;47.992;11.864;2024-02-21T00:39:02;36.98;30.89;40.03;;
46749;Laerm;33775;47.992;11.864;2024-02-21T00:41:28;36.98;31.68;39.92;;
46749;Laerm;33775;47.992;11.864;2024-02-21T00:43:53;36.95;30.89;39.70;;
46749;Laerm;33775;47.992;11.864;2024-02-21T00:46:18;36.92;31.68;39.70;;
46749;Laerm;33775;47.992;11.864;2024-02-21T00:48:43;36.92;32.00;39.70;;
46749;Laerm;33775;47.992;11.864;2024-02-21T00:51:08;36.92;32.93;39.81;;
46749;Laerm;33775;47.992;11.864;2024-02-21T00:53:34;36.95;23.90;40.13;;
46749;Laerm;33775;47.992;11.864;2024-02-21T00:55:59;36.94;30.89;40.18;;
46749;Laerm;33775;47.992;11.864;2024-02-21T00:58:24;36.92;32.35;40.23;;
46749;Laerm;33775;47.992;11.864;2024-02-21T01:00:49;36.94;31.68;39.92;;
46749;Laerm;33775;47.992;11.864;2024-02-21T01:03:14;36.93;32.35;39.89;;
46749;Laerm;33775;47.992;11.864;2024-02-21T01:05:40;36.94;31.68;39.70;;
46749;Laerm;33775;47.992;11.864;2024-02-21T01:08:05;36.95;32.35;39.46;;
46749;Laerm;33775;47.992;11.864;2024-02-21T01:10:30;36.97;31.68;39.58;;
46749;Laerm;33775;47.992;11.864;2024-02-21T01:12:55;36.93;31.68;40.03;;
46749;Laerm;33775;47.992;11.864;2024-02-21T01:15:20;36.97;32.35;40.03;;
46749;Laerm;33775;47.992;11.864;2024-02-21T01:17:46;36.97;30.89;39.92;;
46749;Laerm;33775;47.992;11.864;2024-02-21T01:20:11;36.93;31.68;40.03;;
46749;Laerm;33775;47.992;11.864;2024-02-21T01:22:36;36.93;29.92;39.92;;
46749;Laerm;33775;47.992;11.864;2024-02-21T01:25:01;36.92;31.68;39.78;;
46749;Laerm;33775;47.992;11.864;2024-02-21T01:27:27;36.92;31.68;39.92;;
46749;Laerm;33775;47.992;11.864;2024-02-21T01:29:52;36.92;31.68;39.81;;
46749;Laerm;33775;47.992;11.864;2024-02-21T01:32:17;36.92;31.68;39.81;;
46749;Laerm;33775;47.992;11.864;2024-02-21T01:34:42;36.93;29.92;39.58;;
46749;Laerm;33775;47.992;11.864;2024-02-21T01:37:08;36.90;31.68;39.70;;
46749;Laerm;33775;47.992;11.864;2024-02-21T01:39:34;36.92;30.89;40.13;;
46749;Laerm;33775;47.992;11.864;2024-02-21T01:41:59;36.89;31.68;39.46;;
46749;Laerm;33775;47.992;11.864;2024-02-21T01:44:24;36.90;31.68;39.81;;
46749;Laerm;33775;47.992;11.864;2024-02-21T01:46:50;36.91;32.35;39.92;;
46749;Laerm;33775;47.992;11.864;2024-02-21T01:49:16;36.91;31.68;39.70;;
46749;Laerm;33775;47.992;11.864;2024-02-21T01:51:41;36.91;30.89;40.03;;
46749;Laerm;33775;47.992;11.864;2024-02-21T01:54:07;36.94;30.89;39.92;;
46749;Laerm;33775;47.992;11.864;2024-02-21T01:56:32;36.93;30.89;39.92;;
46749;Laerm;33775;47.992;11.864;2024-02-21T01:58:57;36.90;32.35;40.03;;
46749;Laerm;33775;47.992;11.864;2024-02-21T02:01:23;36.88;29.92;39.81;;
46749;Laerm;33775;47.992;11.864;2024-02-21T02:03:48;36.88;30.89;39.78;;
46749;Laerm;33775;47.992;11.864;2024-02-21T02:06:13;36.89;29.92;39.92;;
46749;Laerm;33775;47.992;11.864;2024-02-21T02:08:39;36.91;30.89;39.81;;
46749;Laerm;33775;47.992;11.864;2024-02-21T02:11:04;36.91;32.35;39.92;;
46749;Laerm;33775;47.992;11.864;2024-02-21T02:13:29;36.89;31.68;39.81;;
46749;Laerm;33775;47.992;11.864;2024-02-21T02:15:55;36.88;32.35;39.81;;
46749;Laerm;33775;47.992;11.864;2024-02-21T02:18:20;36.90;30.89;39.92;;
46749;Laerm;33775;47.992;11.864;2024-02-21T02:20:45;36.91;31.68;39.92;;
46749;Laerm;33775;47.992;11.864;2024-02-21T02:23:32;36.89;31.68;39.70;;
46749;Laerm;33775;47.992;11.864;2024-02-21T02:25:57;36.89;31.68;39.81;;
46749;Laerm;33775;47.992;11.864;2024-02-21T02:28:23;36.92;30.89;40.53;;
46749;Laerm;33775;47.992;11.864;2024-02-21T02:30:48;36.88;31.68;39.81;;
46749;Laerm;33775;47.992;11.864;2024-02-21T02:33:14;36.90;31.68;39.92;;
46749;Laerm;33775;47.992;11.864;2024-02-21T02:35:39;36.93;32.35;39.70;;
46749;Laerm;33775;47.992;11.864;2024-02-21T02:38:04;36.89;31.68;39.81;;
46749;Laerm;33775;47.992;11.864;2024-02-21T02:40:30;36.94;30.89;40.03;;
46749;Laerm;33775;47.992;11.864;2024-02-21T02:42:55;36.94;30.89;39.70;;
46749;Laerm;33775;47.992;11.864;2024-02-21T02:45:21;36.96;31.68;40.03;;
46749;Laerm;33775;47.992;11.864;2024-02-21T02:47:48;36.92;31.68;40.13;;
46749;Laerm;33775;47.992;11.864;2024-02-21T02:50:13;36.91;30.89;39.70;;
46749;Laerm;33775;47.992;11.864;2024-02-21T02:52:38;36.92;31.68;39.92;;
46749;Laerm;33775;47.992;11.864;2024-02-21T02:55:04;36.91;31.68;39.58;;
46749;Laerm;33775;47.992;11.864;2024-02-21T02:57:30;36.90;30.89;40.03;;
46749;Laerm;33775;47.992;11.864;2024-02-21T02:59:55;36.91;30.89;39.81;;
46749;Laerm;33775;47.992;11.864;2024-02-21T03:02:20;36.91;30.89;40.03;;
46749;Laerm;33775;47.992;11.864;2024-02-21T03:04:45;36.93;30.89;39.58;;
46749;Laerm;33775;47.992;11.864;2024-02-21T03:07:10;36.92;32.35;39.81;;
46749;Laerm;33775;47.992;11.864;2024-02-21T03:09:39;36.89;30.89;39.58;;
46749;Laerm;33775;47.992;11.864;2024-02-21T03:12:04;36.91;32.35;40.13;;
46749;Laerm;33775;47.992;11.864;2024-02-21T03:14:30;36.91;30.89;40.13;;
46749;Laerm;33775;47.992;11.864;2024-02-21T03:16:55;36.91;31.68;40.03;;
46749;Laerm;33775;47.992;11.864;2024-02-21T03:19:20;36.89;30.89;39.92;;
46749;Laerm;33775;47.992;11.864;2024-02-21T03:21:45;36.90;31.68;39.70;;
46749;Laerm;33775;47.992;11.864;2024-02-21T03:24:11;36.88;30.89;40.33;;
46749;Laerm;33775;47.992;11.864;2024-02-21T03:26:36;36.89;31.68;39.70;;
46749;Laerm;33775;47.992;11.864;2024-02-21T03:29:01;36.88;31.68;39.81;;
46749;Laerm;33775;47.992;11.864;2024-02-21T03:31:26;36.92;31.68;39.70;;
46749;Laerm;33775;47.992;11.864;2024-02-21T03:33:52;36.93;28.67;40.13;;
46749;Laerm;33775;47.992;11.864;2024-02-21T03:36:17;36.90;32.00;39.92;;
46749;Laerm;33775;47.992;11.864;2024-02-21T03:38:42;36.95;31.68;40.03;;
46749;Laerm;33775;47.992;11.864;2024-02-21T03:41:08;36.90;30.89;39.92;;
46749;Laerm;33775;47.992;11.864;2024-02-21T03:43:33;36.92;31.68;39.81;;
46749;Laerm;33775;47.992;11.864;2024-02-21T03:45:58;36.94;30.89;39.81;;
46749;Laerm;33775;47.992;11.864;2024-02-21T03:48:23;36.91;32.35;39.70;;
46749;Laerm;33775;47.992;11.864;2024-02-21T03:50:48;36.93;31.68;40.03;;
46749;Laerm;33775;47.992;11.864;2024-02-21T03:53:14;36.96;32.35;39.81;;
46749;Laerm;33775;47.992;11.864;2024-02-21T03:55:39;36.93;32.00;39.70;;
46749;Laerm;33775;47.992;11.864;2024-02-21T03:58:04;36.92;29.92;39.92;;
46749;Laerm;33775;47.992;11.864;2024-02-21T04:00:29;36.91;31.68;39.70;;
46749;Laerm;33775;47.992;11.864;2024-02-21T04:02:54;36.91;31.68;40.33;;
46749;Laerm;33775;47.992;11.864;2024-02-21T04:05:20;36.92;30.89;40.03;;
46749;Laerm;33775;47.992;11.864;2024-02-21T04:07:46;36.92;30.89;40.13;;
46749;Laerm;33775;47.992;11.864;2024-02-21T04:10:11;36.90;31.68;39.58;;
46749;Laerm;33775;47.992;11.864;2024-02-21T04:12:37;36.92;30.89;39.81;;
46749;Laerm;33775;47.992;11.864;2024-02-21T04:15:03;36.91;31.68;39.81;;
46749;Laerm;33775;47.992;11.864;2024-02-21T04:17:28;36.90;32.35;39.70;;
46749;Laerm;33775;47.992;11.864;2024-02-21T04:19:56;36.94;30.89;39.78;;
46749;Laerm;33775;47.992;11.864;2024-02-21T04:22:26;36.91;32.35;39.46;;
46749;Laerm;33775;47.992;11.864;2024-02-21T04:24:51;36.91;31.68;40.13;;
46749;Laerm;33775;47.992;11.864;2024-02-21T04:27:16;36.88;31.68;39.70;;
46749;Laerm;33775;47.992;11.864;2024-02-21T04:29:41;36.91;32.35;40.33;;
46749;Laerm;33775;47.992;11.864;2024-02-21T04:32:06;36.91;30.89;39.70;;
46749;Laerm;33775;47.992;11.864;2024-02-21T04:34:32;36.92;30.89;39.89;;
46749;Laerm;33775;47.992;11.864;2024-02-21T04:36:57;36.88;31.68;40.03;;
46749;Laerm;33775;47.992;11.864;2024-02-21T04:39:22;36.90;32.35;39.81;;
46749;Laerm;33775;47.992;11.864;2024-02-21T04:41:47;36.91;30.89;39.70;;
46749;Laerm;33775;47.992;11.864;2024-02-21T04:44:12;36.90;30.89;39.81;;
46749;Laerm;33775;47.992;11.864;2024-02-21T04:46:37;36.93;31.68;39.81;;
46749;Laerm;33775;47.992;11.864;2024-02-21T04:49:03;36.93;32.35;39.70;;
46749;Laerm;33775;47.992;11.864;2024-02-21T04:51:28;36.91;30.54;40.23;;
46749;Laerm;33775;47.992;11.864;2024-02-21T04:53:53;36.90;32.00;39.92;;
46749;Laerm;33775;47.992;11.864;2024-02-21T04:56:19;36.91;31.68;39.70;;
46749;Laerm;33775;47.992;11.864;2024-02-21T04:58:44;36.93;29.92;39.81;;
46749;Laerm;33775;47.992;11.864;2024-02-21T05:01:09;36.89;30.89;39.70;;
46749;Laerm;33775;47.992;11.864;2024-02-21T05:03:34;36.91;30.89;39.81;;
46749;Laerm;33775;47.992;11.864;2024-02-21T05:06:00;36.87;31.68;39.81;;
46749;Laerm;33775;47.992;11.864;2024-02-21T05:08:25;36.87;30.89;39.58;;
46749;Laerm;33775;47.992;11.864;2024-02-21T05:10:51;36.90;32.35;40.03;;
46749;Laerm;33775;47.992;11.864;2024-02-21T05:13:16;36.93;32.00;39.70;;
46749;Laerm;33775;47.992;11.864;2024-02-21T05:15:41;36.91;30.89;39.92;;
46749;Laerm;33775;47.992;11.864;2024-02-21T05:18:06;36.93;30.89;39.92;;
46749;Laerm;33775;47.992;11.864;2024-02-21T05:20:32;36.99;32.35;40.03;;
46749;Laerm;33775;47.992;11.864;2024-02-21T05:22:57;37.07;31.68;39.58;;
46749;Laerm;33775;47.992;11.864;2024-02-21T05:25:22;37.09;31.68;39.81;;
46749;Laerm;33775;47.992;11.864;2024-02-21T05:27:50;37.13;32.35;40.03;;
46749;Laerm;33775;47.992;11.864;2024-02-21T05:30:17;37.20;32.93;40.08;;
46749;Laerm;33775;47.992;11.864;2024-02-21T05:32:42;37.23;31.68;40.13;;
46749;Laerm;33775;47.992;11.864;2024-02-21T05:35:07;37.25;32.35;40.43;;
46749;Laerm;33775;47.992;11.864;2024-02-21T05:37:32;37.28;33.44;39.81;;
46749;Laerm;33775;47.992;11.864;2024-02-21T05:39:58;37.30;30.89;39.92;;
46749;Laerm;33775;47.992;11.864;2024-02-21T05:42:23;37.28;32.35;40.13;;
46749;Laerm;33775;47.992;11.864;2024-02-21T05:44:48;37.29;33.44;40.13;;
46749;Laerm;33775;47.992;11.864;2024-02-21T05:47:13;37.29;33.90;40.33;;
46749;Laerm;33775;47.992;11.864;2024-02-21T05:49:40;37.25;32.35;40.03;;
46749;Laerm;33775;47.992;11.864;2024-02-21T05:52:05;37.19;32.93;39.81;;
46749;Laerm;33775;47.992;11.864;2024-02-21T05:54:31;37.19;32.93;39.92;;
46749;Laerm;33775;47.992;11.864;2024-02-21T05:56:56;37.19;32.93;39.81;;
46749;Laerm;33775;47.992;11.864;2024-02-21T05:59:22;37.14;32.93;40.03;;
46749;Laerm;33775;47.992;11.864;2024-02-21T06:01:54;37.15;32.93;39.81;;
46749;Laerm;33775;47.992;11.864;2024-02-21T06:04:21;37.08;31.68;40.03;;
46749;Laerm;33775;47.992;11.864;2024-02-21T06:06:46;37.07;32.35;39.70;;
46749;Laerm;33775;47.992;11.864;2024-02-21T06:09:11;37.01;32.35;39.46;;
46749;Laerm;33775;47.992;11.864;2024-02-21T06:11:36;37.00;32.93;39.70;;
46749;Laerm;33775;47.992;11.864;2024-02-21T06:14:02;36.94;30.89;39.92;;
46749;Laerm;33775;47.992;11.864;2024-02-21T06:16:27;36.97;31.68;39.92;;
46749;Laerm;33775;47.992;11.864;2024-02-21T06:18:53;36.91;32.35;40.03;;
46749;Laerm;33775;47.992;11.864;2024-02-21T06:21:18;36.95;32.00;39.70;;
46749;Laerm;33775;47.992;11.864;2024-02-21T06:23:43;37.04;32.93;39.81;;
46749;Laerm;33775;47.992;11.864;2024-02-21T06:26:08;37.08;31.68;39.81;;
46749;Laerm;33775;47.992;11.864;2024-02-21T06:28:34;37.16;32.58;39.81;;
46749;Laerm;33775;47.992;11.864;2024-02-21T06:30:59;37.15;32.93;40.03;;
46749;Laerm;33775;47.992;11.864;2024-02-21T06:33:24;37.16;32.93;40.03;;
46749;Laerm;33775;47.992;11.864;2024-02-21T06:35:49;37.16;31.68;39.92;;
46749;Laerm;33775;47.992;11.864;2024-02-21T06:38:17;37.11;32.35;39.81;;
46749;Laerm;33775;47.992;11.864;2024-02-21T06:40:43;37.09;33.44;40.13;;
46749;Laerm;33775;47.992;11.864;2024-02-21T06:43:13;37.10;31.68;40.03;;
46749;Laerm;33775;47.992;11.864;2024-02-21T06:45:39;37.09;33.44;40.13;;
46749;Laerm;33775;47.992;11.864;2024-02-21T06:48:04;37.12;31.68;39.81;;
46749;Laerm;33775;47.992;11.864;2024-02-21T06:50:29;37.10;30.89;40.53;;
46749;Laerm;33775;47.992;11.864;2024-02-21T06:52:54;37.11;32.35;39.81;;
46749;Laerm;33775;47.992;11.864;2024-02-21T06:55:19;37.14;32.93;40.03;;
46749;Laerm;33775;47.992;11.864;2024-02-21T06:57:45;37.11;29.92;39.70;;
46749;Laerm;33775;47.992;11.864;2024-02-21T07:00:10;37.13;32.35;40.13;;
46749;Laerm;33775;47.992;11.864;2024-02-21T07:02:35;37.22;32.35;40.33;;
46749;Laerm;33775;47.992;11.864;2024-02-21T07:05:01;37.28;31.68;40.13;;
46749;Laerm;33775;47.992;11.864;2024-02-21T07:07:26;37.33;32.35;39.81;;
46749;Laerm;33775;47.992;11.864;2024-02-21T07:09:51;37.32;33.44;40.13;;
46749;Laerm;33775;47.992;11.864;2024-02-21T07:12:17;37.26;32.35;39.92;;
46749;Laerm;33775;47.992;11.864;2024-02-21T07:14:44;37.18;31.68;40.03;;
46749;Laerm;33775;47.992;11.864;2024-02-21T07:17:09;37.09;31.68;39.92;;
46749;Laerm;33775;47.992;11.864;2024-02-21T07:19:34;37.09;31.68;40.33;;
46749;Laerm;33775;47.992;11.864;2024-02-21T07:22:00;37.07;32.35;40.33;;
46749;Laerm;33775;47.992;11.864;2024-02-21T07:24:25;37.04;30.89;39.81;;
46749;Laerm;33775;47.992;11.864;2024-02-21T07:26:51;37.12;32.35;39.92;;
46749;Laerm;33775;47.992;11.864;2024-02-21T07:29:16;37.25;31.68;40.36;;
46749;Laerm;33775;47.992;11.864;2024-02-21T07:31:41;37.21;32.93;40.43;;
46749;Laerm;33775;47.992;11.864;2024-02-21T07:34:07;37.25;31.68;40.13;;
46749;Laerm;33775;47.992;11.864;2024-02-21T07:36:32;37.16;31.68;40.33;;
46749;Laerm;33775;47.992;11.864;2024-02-21T07:38:58;37.06;32.35;40.13;;
46749;Laerm;33775;47.992;11.864;2024-02-21T07:41:23;37.00;31.68;39.92;;
46749;Laerm;33775;47.992;11.864;2024-02-21T07:43:48;36.98;28.67;39.92;;
46749;Laerm;33775;47.992;11.864;2024-02-21T07:46:13;36.99;31.33;39.81;;
46749;Laerm;33775;47.992;11.864;2024-02-21T07:48:39;36.98;31.68;39.92;;
46749;Laerm;33775;47.992;11.864;2024-02-21T07:51:04;36.95;28.67;40.13;;
46749;Laerm;33775;47.992;11.864;2024-02-21T07:53:29;36.96;30.89;39.81;;
46749;Laerm;33775;47.992;11.864;2024-02-21T07:55:54;36.97;28.67;39.92;;
46749;Laerm;33775;47.992;11.864;2024-02-21T07:58:19;36.96;30.89;39.70;;
46749;Laerm;33775;47.992;11.864;2024-02-21T08:00:45;36.98;30.89;40.43;;
46749;Laerm;33775;47.992;11.864;2024-02-21T08:03:10;36.92;31.68;40.03;;
46749;Laerm;33775;47.992;11.864;2024-02-21T08:05:35;36.94;32.35;39.70;;
46749;Laerm;33775;47.992;11.864;2024-02-21T08:08:00;36.94;32.35;40.03;;
46749;Laerm;33775;47.992;11.864;2024-02-21T08:10:26;36.93;32.35;39.81;;
46749;Laerm;33775;47.992;11.864;2024-02-21T08:12:51;36.98;30.89;40.03;;
46749;Laerm;33775;47.992;11.864;2024-02-21T08:15:16;36.94;30.89;39.81;;
46749;Laerm;33775;47.992;11.864;2024-02-21T08:17:41;36.97;32.93;40.33;;
46749;Laerm;33775;47.992;11.864;2024-02-21T08:20:07;36.98;30.89;40.03;;
46749;Laerm;33775;47.992;11.864;2024-02-21T08:22:32;37.01;30.89;40.03;;
46749;Laerm;33775;47.992;11.864;2024-02-21T08:24:57;37.01;32.35;39.92;;
46749;Laerm;33775;47.992;11.864;2024-02-21T08:27:23;37.04;31.68;39.81;;
46749;Laerm;33775;47.992;11.864;2024-02-21T08:29:48;37.02;32.93;40.03;;
46749;Laerm;33775;47.992;11.864;2024-02-21T08:32:13;36.98;31.68;40.03;;
46749;Laerm;33775;47.992;11.864;2024-02-21T08:34:38;37.01;31.68;39.92;;
46749;Laerm;33775;47.992;11.864;2024-02-21T08:37:03;37.00;29.92;39.81;;
46749;Laerm;33775;47.992;11.864;2024-02-21T08:39:29;37.00;31.68;39.70;;
46749;Laerm;33775;47.992;11.864;2024-02-21T08:41:55;36.98;30.89;39.92;;
46749;Laerm;33775;47.992;11.864;2024-02-21T08:44:22;37.00;30.89;39.81;;
46749;Laerm;33775;47.992;11.864;2024-02-21T08:46:47;36.98;31.68;40.43;;
46749;Laerm;33775;47.992;11.864;2024-02-21T08:49:12;36.97;31.68;39.35;;
46749;Laerm;33775;47.992;11.864;2024-02-21T08:51:38;37.00;32.35;39.81;;
46749;Laerm;33775;47.992;11.864;2024-02-21T08:54:03;37.00;31.68;40.23;;
46749;Laerm;33775;47.992;11.864;2024-02-21T08:56:30;36.98;31.68;39.70;;
46749;Laerm;33775;47.992;11.864;2024-02-21T08:58:55;37.02;31.68;40.13;;
46749;Laerm;33775;47.992;11.864;2024-02-21T09:01:20;37.00;32.35;39.58;;
46749;Laerm;33775;47.992;11.864;2024-02-21T09:03:46;36.99;31.68;39.92;;
46749;Laerm;33775;47.992;11.864;2024-02-21T09:06:11;37.03;32.35;39.81;;
46749;Laerm;33775;47.992;11.864;2024-02-21T09:08:38;37.06;32.93;39.58;;
46749;Laerm;33775;47.992;11.864;2024-02-21T09:11:05;37.05;32.35;39.70;;
46749;Laerm;33775;47.992;11.864;2024-02-21T09:13:31;37.08;32.35;39.92;;
46749;Laerm;33775;47.992;11.864;2024-02-21T09:15:56;37.08;32.35;39.92;;
46749;Laerm;33775;47.992;11.864;2024-02-21T09:18:21;37.09;31.68;40.13;;
46749;Laerm;33775;47.992;11.864;2024-02-21T09:20:46;37.08;32.93;39.92;;
46749;Laerm;33775;47.992;11.864;2024-02-21T09:23:12;37.10;32.35;39.70;;
46749;Laerm;33775;47.992;11.864;2024-02-21T09:25:37;37.12;31.68;39.92;;
46749;Laerm;33775;47.992;11.864;2024-02-21T09:28:03;37.12;32.93;40.13;;
46749;Laerm;33775;47.992;11.864;2024-02-21T09:30:28;37.14;32.35;39.81;;
46749;Laerm;33775;47.992;11.864;2024-02-21T09:32:54;37.15;32.93;40.13;;
46749;Laerm;33775;47.992;11.864;2024-02-21T09:35:19;37.17;32.58;39.70;;
46749;Laerm;33775;47.992;11.864;2024-02-21T09:37:44;37.17;32.35;40.23;;
46749;Laerm;33775;47.992;11.864;2024-02-21T09:40:10;37.17;32.93;39.70;;
46749;Laerm;33775;47.992;11.864;2024-02-21T09:42:39;37.16;31.68;39.92;;
46749;Laerm;33775;47.992;11.864;2024-02-21T09:45:07;37.18;33.44;40.03;;
46749;Laerm;33775;47.992;11.864;2024-02-21T09:50:24;37.18;32.35;40.13;;
46749;Laerm;33775;47.992;11.864;2024-02-21T09:52:51;37.20;32.35;39.81;;
46749;Laerm;33775;47.992;11.864;2024-02-21T09:55:17;37.18;32.35;39.81;;
46749;Laerm;33775;47.992;11.864;2024-02-21T09:57:43;37.20;32.35;39.81;;
46749;Laerm;33775;47.992;11.864;2024-02-21T10:00:09;37.20;32.93;40.13;;
46749;Laerm;33775;47.992;11.864;2024-02-21T10:02:34;37.23;32.58;40.03;;
46749;Laerm;33775;47.992;11.864;2024-02-21T10:05:00;37.19;31.68;40.23;;
46749;Laerm;33775;47.992;11.864;2024-02-21T10:07:25;37.22;31.68;39.92;;
46749;Laerm;33775;47.992;11.864;2024-02-21T10:10:00;37.22;32.35;40.03;;
46749;Laerm;33775;47.992;11.864;2024-02-21T10:12:25;37.22;32.00;40.03;;
46749;Laerm;33775;47.992;11.864;2024-02-21T10:14:59;37.28;31.68;40.33;;
46749;Laerm;33775;47.992;11.864;2024-02-21T10:17:24;37.22;32.93;39.92;;
46749;Laerm;33775;47.992;11.864;2024-02-21T10:19:49;37.27;32.35;39.81;;
46749;Laerm;33775;47.992;11.864;2024-02-21T10:22:17;37.28;32.93;40.03;;
46749;Laerm;33775;47.992;11.864;2024-02-21T10:24:42;37.28;32.93;40.03;;
46749;Laerm;33775;47.992;11.864;2024-02-21T10:27:07;37.30;32.35;39.81;;
46749;Laerm;33775;47.992;11.864;2024-02-21T10:29:36;37.27;32.35;40.23;;
46749;Laerm;33775;47.992;11.864;2024-02-21T10:34:31;37.27;32.35;40.23;;
46749;Laerm;33775;47.992;11.864;2024-02-21T10:37:00;37.28;32.93;40.23;;
46749;Laerm;33775;47.992;11.864;2024-02-21T10:39:25;37.31;32.35;40.13;;
46749;Laerm;33775;47.992;11.864;2024-02-21T10:41:51;37.31;32.00;40.03;;
46749;Laerm;33775;47.992;11.864;2024-02-21T10:44:16;37.31;32.93;40.03;;
46749;Laerm;33775;47.992;11.864;2024-02-21T10:46:43;37.32;31.68;40.13;;
46749;Laerm;33775;47.992;11.864;2024-02-21T10:49:13;37.33;33.44;40.23;;
46749;Laerm;33775;47.992;11.864;2024-02-21T10:51:43;37.32;32.35;40.33;;
46749;Laerm;33775;47.992;11.864;2024-02-21T10:56:34;37.32;32.35;40.03;;
46749;Laerm;33775;47.992;11.864;2024-02-21T10:59:02;37.33;32.93;40.23;;
46749;Laerm;33775;47.992;11.864;2024-02-21T11:01:28;37.34;30.89;40.13;;
46749;Laerm;33775;47.992;11.864;2024-02-21T11:03:57;37.36;32.93;40.13;;
46749;Laerm;33775;47.992;11.864;2024-02-21T11:06:23;37.33;32.93;40.23;;
46749;Laerm;33775;47.992;11.864;2024-02-21T11:08:59;37.37;33.44;40.18;;
46749;Laerm;33775;47.992;11.864;2024-02-21T11:11:25;37.37;32.35;40.23;;
46749;Laerm;33775;47.992;11.864;2024-02-21T11:13:50;37.37;32.93;39.99;;
46749;Laerm;33775;47.992;11.864;2024-02-21T11:16:21;37.39;32.35;39.92;;
46749;Laerm;33775;47.992;11.864;2024-02-21T11:18:47;37.38;29.92;40.53;;
46749;Laerm;33775;47.992;11.864;2024-02-21T11:21:13;37.38;32.58;40.23;;
46749;Laerm;33775;47.992;11.864;2024-02-21T11:23:38;37.43;33.44;40.53;;
46749;Laerm;33775;47.992;11.864;2024-02-21T11:26:06;37.39;32.93;40.33;;
46749;Laerm;33775;47.992;11.864;2024-02-21T11:28:31;37.39;33.44;40.03;;
46749;Laerm;33775;47.992;11.864;2024-02-21T11:31:12;37.39;32.35;40.13;;
46749;Laerm;33775;47.992;11.864;2024-02-21T11:33:43;37.40;32.93;40.13;;
46749;Laerm;33775;47.992;11.864;2024-02-21T11:36:11;37.41;32.93;40.33;;
46749;Laerm;33775;47.992;11.864;2024-02-21T11:38:47;37.46;33.44;40.13;;
46749;Laerm;33775;47.992;11.864;2024-02-21T11:41:12;37.49;32.93;40.36;;
46749;Laerm;33775;47.992;11.864;2024-02-21T11:43:38;37.47;33.44;40.13;;
46749;Laerm;33775;47.992;11.864;2024-02-21T11:46:03;37.40;32.93;40.23;;
46749;Laerm;33775;47.992;11.864;2024-02-21T11:48:28;37.41;32.93;39.81;;
46749;Laerm;33775;47.992;11.864;2024-02-21T11:50:54;37.38;32.35;40.03;;
46749;Laerm;33775;47.992;11.864;2024-02-21T11:53:20;37.40;33.44;40.33;;
46749;Laerm;33775;47.992;11.864;2024-02-21T11:55:45;37.39;32.93;40.43;;
46749;Laerm;33775;47.992;11.864;2024-02-21T11:58:11;37.37;32.93;40.18;;
46749;Laerm;33775;47.992;11.864;2024-02-21T12:00:36;37.36;32.93;40.53;;
46749;Laerm;33775;47.992;11.864;2024-02-21T12:03:01;37.35;31.68;40.13;;
46749;Laerm;33775;47.992;11.864;2024-02-21T12:05:27;37.38;32.58;40.03;;
46749;Laerm;33775;47.992;11.864;2024-02-21T12:07:53;37.31;32.35;40.13;;
46749;Laerm;33775;47.992;11.864;2024-02-21T12:10:19;37.31;32.93;39.81;;
46749;Laerm;33775;47.992;11.864;2024-02-21T12:12:45;37.32;31.68;39.92;;
46749;Laerm;33775;47.992;11.864;2024-02-21T12:15:10;37.34;30.89;40.23;;
46749;Laerm;33775;47.992;11.864;2024-02-21T12:17:36;37.32;32.35;40.13;;
46749;Laerm;33775;47.992;11.864;2024-02-21T12:20:01;37.36;32.35;40.53;;
46749;Laerm;33775;47.992;11.864;2024-02-21T12:22:29;37.35;32.35;40.53;;
46749;Laerm;33775;47.992;11.864;2024-02-21T12:24:57;37.33;32.35;40.33;;
46749;Laerm;33775;47.992;11.864;2024-02-21T12:27:22;37.31;31.68;40.23;;
46749;Laerm;33775;47.992;11.864;2024-02-21T12:29:48;37.34;32.35;40.08;;
46749;Laerm;33775;47.992;11.864;2024-02-21T12:32:14;37.36;32.35;40.03;;
46749;Laerm;33775;47.992;11.864;2024-02-21T12:34:39;37.33;31.68;40.23;;
46749;Laerm;33775;47.992;11.864;2024-02-21T12:37:04;37.29;32.35;40.53;;
46749;Laerm;33775;47.992;11.864;2024-02-21T12:39:29;37.27;32.35;40.13;;
46749;Laerm;33775;47.992;11.864;2024-02-21T12:41:54;37.24;32.93;40.03;;
46749;Laerm;33775;47.992;11.864;2024-02-21T12:44:21;37.20;31.68;40.62;;
46749;Laerm;33775;47.992;11.864;2024-02-21T12:46:46;37.20;32.35;40.33;;
46749;Laerm;33775;47.992;11.864;2024-02-21T12:49:16;37.23;32.93;40.03;;
46749;Laerm;33775;47.992;11.864;2024-02-21T12:51:41;37.22;32.00;40.53;;
46749;Laerm;33775;47.992;11.864;2024-02-21T12:54:07;37.25;32.35;39.81;;
46749;Laerm;33775;47.992;11.864;2024-02-21T12:56:35;37.24;32.35;40.03;;
46749;Laerm;33775;47.992;11.864;2024-02-21T12:59:00;37.29;33.44;39.81;;
46749;Laerm;33775;47.992;11.864;2024-02-21T13:01:25;37.35;32.35;40.53;;
46749;Laerm;33775;47.992;11.864;2024-02-21T13:03:51;37.38;32.93;40.23;;
46749;Laerm;33775;47.992;11.864;2024-02-21T13:06:16;37.32;32.93;40.53;;
46749;Laerm;33775;47.992;11.864;2024-02-21T13:08:41;37.29;31.68;40.03;;
46749;Laerm;33775;47.992;11.864;2024-02-21T13:11:07;37.33;32.58;39.81;;
46749;Laerm;33775;47.992;11.864;2024-02-21T13:13:32;37.32;32.93;40.23;;
46749;Laerm;33775;47.992;11.864;2024-02-21T13:15:58;37.31;32.93;40.03;;
46749;Laerm;33775;47.992;11.864;2024-02-21T13:18:23;37.27;32.35;40.23;;
46749;Laerm;33775;47.992;11.864;2024-02-21T13:20:48;37.27;30.89;39.92;;
46749;Laerm;33775;47.992;11.864;2024-02-21T13:23:13;37.30;32.35;39.92;;
46749;Laerm;33775;47.992;11.864;2024-02-21T13:25:38;37.28;32.93;40.18;;
46749;Laerm;33775;47.992;11.864;2024-02-21T13:28:04;37.26;29.92;40.23;;
46749;Laerm;33775;47.992;11.864;2024-02-21T13:30:29;37.28;33.44;40.13;;